Time;durP1;ratioP1;P1;durP2;ratioP2;P2;SDS_P1;SDS_P2;PMS_P1;PMS_P2;Temp;Humidity;BMP_temperature;BMP_pressure;BME280_temperature;BME280_humidity;BME280_pressure;Samples;Min_cycle;Max_cycle;Signal;HPM_P1;HPM_P2
2021/04/13 00:00:19;;;;;;;3.20;2.90;;;22.60;49.60;;;;;;5082575;28;20545;-86
2021/04/13 00:02:50;;;;;;;2.93;2.50;;;22.60;49.60;;;;;;5066206;28;20503;-85
2021/04/13 00:05:40;;;;;;;3.10;2.90;;;22.60;49.60;;;;;;5065248;28;20416;-84
2021/04/13 00:08:14;;;;;;;2.77;2.50;;;22.60;49.60;;;;;;5025662;28;20458;-84
2021/04/13 00:10:49;;;;;;;2.53;2.33;;;22.60;49.60;;;;;;5025105;28;20438;-85
2021/04/13 00:13:17;;;;;;;3.00;2.40;;;22.60;49.60;;;;;;5043209;28;20394;-85
2021/04/13 00:15:48;;;;;;;4.50;2.47;;;22.60;49.60;;;;;;5039275;28;20814;-85
2021/04/13 00:18:17;;;;;;;2.67;2.37;;;22.60;49.60;;;;;;5055128;28;20432;-84
2021/04/13 00:20:56;;;;;;;2.60;2.40;;;22.50;49.50;;;;;;5055506;28;20437;-85
2021/04/13 00:23:22;;;;;;;3.60;2.40;;;22.60;49.60;;;;;;5060657;28;20437;-85
2021/04/13 00:25:57;;;;;;;2.87;2.40;;;22.50;49.50;;;;;;5036306;28;20410;-85
2021/04/13 00:28:27;;;;;;;2.87;2.50;;;22.50;49.60;;;;;;5067267;28;20456;-85
2021/04/13 00:30:56;;;;;;;2.87;2.57;;;22.50;49.50;;;;;;5067984;28;20433;-84
2021/04/13 00:33:30;;;;;;;2.63;2.43;;;22.50;49.60;;;;;;5065231;28;20421;-85
2021/04/13 00:36:12;;;;;;;2.40;2.20;;;22.50;49.60;;;;;;5041726;28;20425;-85
2021/04/13 00:38:47;;;;;;;2.80;2.57;;;22.50;49.60;;;;;;5057189;28;20437;-85
2021/04/13 00:41:27;;;;;;;2.70;2.17;;;22.50;49.60;;;;;;5045288;28;21025;-85
2021/04/13 00:44:02;;;;;;;3.10;2.70;;;22.50;49.60;;;;;;5056015;28;20489;-85
2021/04/13 00:46:48;;;;;;;3.00;2.70;;;22.40;49.50;;;;;;5058505;28;20490;-85
2021/04/13 00:49:17;;;;;;;2.53;2.33;;;22.40;49.60;;;;;;5038414;28;20484;-85
2021/04/13 00:51:55;;;;;;;2.53;2.33;;;22.40;49.60;;;;;;5060033;28;20459;-85
2021/04/13 00:54:31;;;;;;;2.67;2.47;;;22.40;49.60;;;;;;5057077;28;20401;-85
2021/04/13 00:57:01;;;;;;;2.60;2.40;;;22.40;49.60;;;;;;5055960;28;20452;-85
2021/04/13 00:59:28;;;;;;;2.53;2.30;;;22.40;49.60;;;;;;5058852;28;20433;-85
2021/04/13 01:02:08;;;;;;;3.23;2.30;;;22.40;49.70;;;;;;5055395;28;20425;-85
2021/04/13 01:04:46;;;;;;;2.83;2.63;;;22.40;49.70;;;;;;5042766;28;20506;-85
2021/04/13 01:07:17;;;;;;;2.67;2.43;;;22.40;49.70;;;;;;5041585;28;20493;-85
2021/04/13 01:09:49;;;;;;;3.10;2.40;;;22.40;49.60;;;;;;5035787;28;20429;-85
2021/04/13 01:12:30;;;;;;;3.30;2.40;;;22.40;49.60;;;;;;5054045;28;20434;-85
2021/04/13 01:14:58;;;;;;;2.73;2.37;;;22.40;49.60;;;;;;5040110;28;20419;-86
2021/04/13 01:17:24;;;;;;;2.50;2.20;;;22.40;49.70;;;;;;5061095;28;20437;-86
2021/04/13 01:20:07;;;;;;;2.60;2.40;;;22.40;49.70;;;;;;5061890;28;20450;-86
2021/04/13 01:22:51;;;;;;;2.83;2.47;;;22.40;49.70;;;;;;5064656;28;20441;-87
2021/04/13 01:25:39;;;;;;;2.33;2.00;;;22.40;49.70;;;;;;5061696;28;20398;-86
2021/04/13 01:28:24;;;;;;;2.40;2.20;;;22.40;49.70;;;;;;5061182;28;20477;-86
2021/04/13 01:31:10;;;;;;;2.37;2.17;;;22.40;49.70;;;;;;5056130;28;20444;-86
2021/04/13 01:33:41;;;;;;;2.67;2.10;;;22.40;49.70;;;;;;5039833;28;20449;-87
2021/04/13 01:36:27;;;;;;;2.50;2.20;;;22.40;49.70;;;;;;5035222;28;20471;-86
2021/04/13 01:39:16;;;;;;;2.67;2.23;;;22.40;49.70;;;;;;5061192;28;20441;-87
2021/04/13 01:41:57;;;;;;;2.50;2.30;;;22.40;49.70;;;;;;5062198;28;20828;-87
2021/04/13 01:47:35;;;;;;;3.33;2.30;;;22.30;49.70;;;;;;5058937;28;20500;-87
2021/04/13 01:50:16;;;;;;;2.97;2.40;;;22.40;49.80;;;;;;5033662;28;20437;-87
2021/04/13 01:52:46;;;;;;;2.87;2.10;;;22.30;49.70;;;;;;5038383;28;20418;-87
2021/04/13 01:55:23;;;;;;;2.77;2.10;;;22.30;49.70;;;;;;5065998;28;20405;-87
2021/04/13 01:57:54;;;;;;;3.27;3.07;;;22.30;49.70;;;;;;5047756;28;20416;-87
2021/04/13 02:00:43;;;;;;;3.17;2.40;;;22.30;49.80;;;;;;5047236;28;20504;-86
2021/04/13 02:03:15;;;;;;;1.97;1.77;;;22.30;49.70;;;;;;5065342;28;20412;-86
2021/04/13 02:05:46;;;;;;;2.40;2.20;;;22.30;49.80;;;;;;5047541;28;20409;-86
2021/04/13 02:08:22;;;;;;;2.87;2.40;;;22.30;49.80;;;;;;5065604;28;20449;-87
2021/04/13 02:10:56;;;;;;;2.33;2.10;;;22.30;49.80;;;;;;5065312;28;20442;-87
2021/04/13 02:13:41;;;;;;;2.50;1.87;;;22.30;49.80;;;;;;5047788;28;20406;-87
2021/04/13 02:16:17;;;;;;;2.10;1.90;;;22.30;49.80;;;;;;5047714;28;20768;-87
2021/04/13 02:18:46;;;;;;;2.57;2.37;;;22.30;49.80;;;;;;5047214;28;20517;-87
2021/04/13 02:21:19;;;;;;;2.27;2.00;;;22.20;49.80;;;;;;5047635;28;20422;-87
2021/04/13 02:23:55;;;;;;;2.70;2.50;;;22.20;49.80;;;;;;5065106;28;20463;-87
2021/04/13 02:26:21;;;;;;;2.13;1.93;;;22.20;49.80;;;;;;5047747;28;20427;-87
2021/04/13 02:28:49;;;;;;;2.50;2.30;;;22.20;49.80;;;;;;5068974;28;20457;-87
2021/04/13 02:31:48;;;;;;;2.50;2.30;;;22.20;49.80;;;;;;5051185;28;20406;-87
2021/04/13 02:34:18;;;;;;;2.93;2.17;;;22.20;49.80;;;;;;5050697;28;20421;-87
2021/04/13 02:36:50;;;;;;;2.30;2.10;;;22.20;49.90;;;;;;5068752;28;20965;-87
2021/04/13 02:39:19;;;;;;;2.27;2.07;;;22.20;49.80;;;;;;5050623;28;20413;-87
2021/04/13 02:41:49;;;;;;;2.10;1.90;;;22.20;49.90;;;;;;5051446;28;20423;-87
2021/04/13 02:44:18;;;;;;;2.53;2.30;;;22.20;49.90;;;;;;5034645;28;20919;-86
2021/04/13 02:46:44;;;;;;;2.00;1.80;;;22.20;49.80;;;;;;5034723;28;20436;-87
2021/04/13 02:49:15;;;;;;;2.17;1.97;;;22.20;49.80;;;;;;5068711;28;20405;-87
2021/04/13 02:51:53;;;;;;;2.97;2.40;;;22.20;49.80;;;;;;5069260;28;20414;-87
2021/04/13 02:54:22;;;;;;;2.70;2.50;;;22.20;49.80;;;;;;5068440;28;20393;-87
2021/04/13 02:56:51;;;;;;;2.90;2.30;;;22.20;49.80;;;;;;5050790;28;20424;-87
2021/04/13 02:59:17;;;;;;;2.50;2.00;;;22.20;49.80;;;;;;5068631;28;20452;-87
2021/04/13 03:02:04;;;;;;;2.47;2.13;;;22.20;49.80;;;;;;5067413;28;20441;-87
2021/04/13 03:04:35;;;;;;;2.90;2.70;;;22.20;49.80;;;;;;5050673;28;20182;-87
2021/04/13 03:07:00;;;;;;;2.67;2.03;;;22.20;49.80;;;;;;5050323;28;20847;-87
2021/04/13 03:09:28;;;;;;;2.50;2.27;;;22.10;49.80;;;;;;5067961;28;20480;-87
2021/04/13 03:12:06;;;;;;;2.27;2.00;;;22.20;49.80;;;;;;5068957;28;20163;-87
2021/04/13 03:14:45;;;;;;;2.23;2.03;;;22.20;50.40;;;;;;5050809;28;20418;-87
2021/04/13 03:17:19;;;;;;;2.00;1.80;;;22.20;49.80;;;;;;5050602;28;20460;-86
2021/04/13 03:19:47;;;;;;;2.03;1.83;;;22.20;49.90;;;;;;5068473;28;20427;-86
2021/04/13 03:22:16;;;;;;;2.27;2.00;;;22.10;49.80;;;;;;5050013;28;20513;-87
2021/04/13 03:24:46;;;;;;;2.70;2.50;;;22.20;49.90;;;;;;5067769;28;20405;-87
2021/04/13 03:27:18;;;;;;;2.27;2.07;;;22.10;49.80;;;;;;5049468;28;20468;-87
2021/04/13 03:30:02;;;;;;;1.90;1.77;;;22.10;49.80;;;;;;5049644;28;20485;-87
2021/04/13 03:32:32;;;;;;;2.00;1.80;;;22.10;49.80;;;;;;5049936;28;20477;-87
2021/04/13 03:34:59;;;;;;;2.10;1.87;;;22.10;49.80;;;;;;5050533;28;20503;-87
2021/04/13 03:37:26;;;;;;;2.20;1.90;;;22.10;49.90;;;;;;5050017;28;20485;-87
2021/04/13 03:39:53;;;;;;;1.80;1.70;;;22.10;49.80;;;;;;5050205;28;20420;-86
2021/04/13 03:42:25;;;;;;;2.33;1.90;;;22.10;49.90;;;;;;5071282;28;20495;-87
2021/04/13 03:44:52;;;;;;;2.80;2.10;;;22.10;49.90;;;;;;5069585;28;20413;-87
2021/04/13 03:47:22;;;;;;;2.80;2.50;;;22.10;49.90;;;;;;5052784;28;20481;-87
2021/04/13 03:49:49;;;;;;;2.07;1.87;;;22.10;49.90;;;;;;5053478;28;20441;-86
2021/04/13 03:52:32;;;;;;;2.13;1.93;;;22.10;49.90;;;;;;5050553;28;20409;-86
2021/04/13 03:55:12;;;;;;;2.00;1.80;;;22.10;49.90;;;;;;5054477;28;20470;-88
2021/04/13 03:57:38;;;;;;;2.70;2.20;;;22.10;49.90;;;;;;5052272;28;20492;-86
2021/04/13 04:00:09;;;;;;;2.10;1.83;;;22.10;50.00;;;;;;5052987;28;20942;-86
2021/04/13 04:02:37;;;;;;;2.00;1.83;;;22.10;50.00;;;;;;5053325;28;20684;-86
2021/04/13 04:05:18;;;;;;;2.20;1.90;;;22.00;49.90;;;;;;5052844;28;20580;-86
2021/04/13 04:07:59;;;;;;;2.30;2.10;;;22.10;50.00;;;;;;5053481;28;20461;-86
2021/04/13 04:10:44;;;;;;;2.77;2.10;;;22.00;49.90;;;;;;5070353;28;20413;-86
2021/04/13 04:13:45;;;;;;;2.47;2.27;;;22.00;50.00;;;;;;5071075;28;20440;-85
2021/04/13 04:16:33;;;;;;;1.90;1.70;;;22.00;50.00;;;;;;5054397;28;20871;-85
2021/04/13 04:19:21;;;;;;;1.77;1.67;;;22.00;50.00;;;;;;5071201;28;20402;-85
2021/04/13 04:22:04;;;;;;;2.13;1.93;;;22.00;50.60;;;;;;5054371;28;20440;-85
2021/04/13 04:24:36;;;;;;;2.00;1.80;;;22.00;50.10;;;;;;5053052;28;20447;-85
2021/04/13 04:27:06;;;;;;;1.60;1.50;;;22.00;50.10;;;;;;5071900;28;20449;-85
2021/04/13 04:29:41;;;;;;;3.00;2.00;;;21.90;50.00;;;;;;5071790;28;20432;-85
2021/04/13 04:32:23;;;;;;;2.07;1.50;;;21.90;50.00;;;;;;5049770;28;20413;-87
2021/04/13 04:34:51;;;;;;;2.50;1.87;;;21.90;50.00;;;;;;5048490;28;20463;-87
2021/04/13 04:37:58;;;;;;;1.70;1.60;;;21.90;50.00;;;;;;5066076;28;20413;-87
2021/04/13 04:40:27;;;;;;;1.70;1.60;;;22.00;50.10;;;;;;5066336;28;20413;-87
2021/04/13 04:42:54;;;;;;;2.13;1.60;;;21.90;50.10;;;;;;5048668;28;20514;-87
2021/04/13 04:45:32;;;;;;;1.90;1.70;;;22.00;50.10;;;;;;5066492;28;20410;-87
2021/04/13 04:47:58;;;;;;;2.20;2.00;;;22.00;50.00;;;;;;5047862;28;20481;-86
2021/04/13 04:50:24;;;;;;;1.73;1.63;;;22.00;50.00;;;;;;5048120;28;20417;-88
2021/04/13 04:52:50;;;;;;;1.87;1.67;;;22.00;50.00;;;;;;5047947;28;20429;-86
2021/04/13 04:55:16;;;;;;;2.00;1.70;;;22.00;50.00;;;;;;5048543;28;20202;-86
2021/04/13 04:57:45;;;;;;;2.10;1.70;;;22.00;50.00;;;;;;5066068;28;20217;-86
2021/04/13 05:00:14;;;;;;;1.57;1.40;;;22.00;49.90;;;;;;5081692;28;20443;-86
2021/04/13 05:02:40;;;;;;;1.80;1.70;;;22.00;49.90;;;;;;5085107;28;20424;-88
2021/04/13 05:05:08;;;;;;;1.70;1.60;;;22.10;49.90;;;;;;5084851;28;20419;-86
2021/04/13 05:07:37;;;;;;;2.00;1.63;;;22.10;49.90;;;;;;5076375;28;20195;-85
2021/04/13 05:10:12;;;;;;;2.70;2.03;;;22.10;49.90;;;;;;5067790;28;20425;-85
2021/04/13 05:12:37;;;;;;;2.30;1.93;;;22.00;49.80;;;;;;5067471;28;20480;-86
2021/04/13 05:15:32;;;;;;;2.40;2.10;;;22.10;49.80;;;;;;5068725;28;20421;-85
2021/04/13 05:17:58;;;;;;;1.70;1.60;;;22.10;49.80;;;;;;5067864;28;20171;-86
2021/04/13 05:20:29;;;;;;;1.80;1.70;;;22.10;49.80;;;;;;5065549;28;20464;-86
2021/04/13 05:22:55;;;;;;;1.83;1.60;;;22.10;49.80;;;;;;5068001;28;20193;-86
2021/04/13 05:26:09;;;;;;;;;;;;;;;;;;;;;
2021/04/13 05:28:41;;;;;;;1.57;1.47;;;22.10;49.70;;;;;;5066879;28;20652;-86
2021/04/13 05:31:12;;;;;;;2.10;1.90;;;22.10;49.70;;;;;;5065230;28;20482;-86
2021/04/13 05:36:43;;;;;;;1.90;1.70;;;22.10;49.70;;;;;;5045191;28;20506;-86
2021/04/13 05:39:09;;;;;;;3.07;2.17;;;22.10;49.70;;;;;;5065703;28;20477;-86
2021/04/13 05:41:35;;;;;;;2.20;2.00;;;22.10;49.70;;;;;;5065754;28;20420;-87
2021/04/13 05:44:06;;;;;;;1.50;1.30;;;22.10;49.70;;;;;;5067253;28;20410;-86
2021/04/13 05:46:32;;;;;;;2.10;1.90;;;22.20;49.70;;;;;;5065628;28;21275;-87
2021/04/13 05:48:58;;;;;;;2.00;1.50;;;22.20;49.70;;;;;;5067079;28;20424;-87
2021/04/13 05:51:26;;;;;;;1.73;1.53;;;22.20;49.70;;;;;;5066423;28;20440;-85
2021/04/13 05:53:52;;;;;;;2.20;1.67;;;22.20;49.70;;;;;;5066950;28;20421;-85
2021/04/13 05:56:24;;;;;;;1.60;1.50;;;22.20;49.60;;;;;;5067956;28;20406;-86
2021/04/13 05:58:50;;;;;;;1.40;1.20;;;22.20;49.60;;;;;;5069941;28;20194;-86
2021/04/13 06:01:20;;;;;;;1.60;1.50;;;22.20;49.60;;;;;;5100064;28;20412;-86
2021/04/13 06:03:47;;;;;;;2.23;2.07;;;22.20;49.60;;;;;;5100545;28;20411;-87
2021/04/13 06:06:17;;;;;;;1.50;1.40;;;22.20;49.60;;;;;;5085811;28;20440;-86
2021/04/13 06:08:42;;;;;;;2.00;1.80;;;22.20;49.60;;;;;;5084643;28;20785;-85
2021/04/13 06:11:23;;;;;;;2.10;1.90;;;22.20;49.60;;;;;;5079280;28;20427;-86
2021/04/13 06:13:50;;;;;;;2.20;1.67;;;22.30;49.70;;;;;;5083218;28;20241;-86
2021/04/13 06:16:18;;;;;;;1.90;1.60;;;22.30;49.70;;;;;;5097507;28;20500;-87
2021/04/13 06:18:44;;;;;;;1.90;1.40;;;22.30;49.70;;;;;;5096780;28;20769;-86
2021/04/13 06:21:10;;;;;;;1.60;1.50;;;22.30;49.70;;;;;;5087219;28;20556;-88
2021/04/13 06:23:36;;;;;;;2.00;1.70;;;22.30;50.20;;;;;;5087483;28;20221;-88
2021/04/13 06:26:02;;;;;;;1.60;1.20;;;22.30;49.70;;;;;;5082359;28;20201;-88
2021/04/13 06:28:28;;;;;;;1.70;1.40;;;22.30;49.60;;;;;;5096588;28;20203;-88
2021/04/13 06:30:54;;;;;;;2.20;1.63;;;22.30;49.60;;;;;;5098771;28;20412;-89
2021/04/13 06:33:23;;;;;;;1.70;1.40;;;22.40;49.70;;;;;;5081510;28;20471;-88
2021/04/13 06:35:49;;;;;;;5.50;1.90;;;22.40;49.60;;;;;;5081230;28;20454;-89
2021/04/13 06:38:22;;;;;;;1.63;1.50;;;22.50;49.60;;;;;;5073100;28;21131;-89
2021/04/13 06:41:07;;;;;;;1.87;1.50;;;22.60;49.60;;;;;;5101531;28;20289;-88
2021/04/13 06:44:08;;;;;;;1.97;1.60;;;22.50;49.50;;;;;;5077801;28;20514;-91
2021/04/13 06:46:53;;;;;;;1.90;1.60;;;22.60;49.60;;;;;;5081204;28;20412;-85
2021/04/13 06:49:35;;;;;;;1.40;1.30;;;22.60;49.60;;;;;;5105875;28;20427;-85
2021/04/13 06:52:35;;;;;;;3.80;1.37;;;22.60;49.50;;;;;;5106426;28;20384;-85
2021/04/13 06:55:23;;;;;;;1.60;1.50;;;22.60;49.50;;;;;;5107537;28;20412;-86
2021/04/13 06:57:49;;;;;;;1.53;1.43;;;22.60;49.50;;;;;;5087208;28;20437;-85
2021/04/13 07:00:24;;;;;;;1.97;1.47;;;22.60;49.50;;;;;;5088029;28;20439;-85
2021/04/13 07:03:19;;;;;;;1.47;1.30;;;22.70;49.60;;;;;;5088863;28;20260;-91
2021/04/13 07:06:14;;;;;;;1.90;1.57;;;22.70;49.50;;;;;;5087791;28;20486;-91
2021/04/13 07:08:43;;;;;;;2.20;2.00;;;22.70;49.50;;;;;;5087531;28;20455;-91
2021/04/13 07:11:35;;;;;;;1.60;1.43;;;22.70;49.50;;;;;;5105489;28;20404;-91
2021/04/13 07:14:05;;;;;;;1.30;1.20;;;22.80;49.60;;;;;;5087034;28;20411;-91
2021/04/13 07:16:43;;;;;;;1.50;1.40;;;22.80;49.60;;;;;;5087492;28;20418;-91
2021/04/13 07:19:18;;;;;;;1.60;1.50;;;22.80;49.60;;;;;;5105470;28;20474;-89
2021/04/13 07:22:19;;;;;;;1.40;1.30;;;22.80;49.60;;;;;;5086413;28;20436;-89
2021/04/13 07:24:56;;;;;;;1.80;1.17;;;22.80;49.50;;;;;;5086503;28;20431;-85
2021/04/13 07:27:34;;;;;;;1.83;1.67;;;22.80;49.60;;;;;;5108709;28;20466;-86
2021/04/13 07:30:06;;;;;;;1.67;1.20;;;22.80;49.50;;;;;;5089728;28;20403;-85
2021/04/13 07:36:33;;;;;;;2.27;1.70;;;22.90;49.40;;;;;;5008199;28;20507;-85
2021/04/13 07:39:34;;;;;;;1.70;1.30;;;22.90;49.90;;;;;;4916498;29;20423;-85
2021/04/13 08:21:17;;;;;;;;;;;;;;;;;;;;;
2021/04/13 08:40:45;;;;;;;1.57;1.20;;;23.10;49.70;;;;;;4925908;29;20495;-83
2021/04/13 08:43:22;;;;;;;1.97;1.30;;;23.10;49.70;;;;;;4926351;29;20507;-83
2021/04/13 08:46:23;;;;;;;2.67;2.13;;;23.10;49.70;;;;;;4925248;29;20440;-83
2021/04/13 08:48:49;;;;;;;1.57;1.40;;;23.10;49.60;;;;;;4922973;29;20451;-83
2021/04/13 08:51:36;;;;;;;1.47;1.37;;;23.10;49.70;;;;;;4909293;29;20464;-83
2021/04/13 08:54:19;;;;;;;1.30;1.10;;;23.20;49.70;;;;;;4944552;28;20182;-82
2021/04/13 08:57:21;;;;;;;1.33;1.23;;;23.20;49.70;;;;;;5017867;28;20458;-82
2021/04/13 08:59:55;;;;;;;1.70;1.50;;;23.20;49.70;;;;;;5068175;28;20933;-83
2021/04/13 09:02:24;;;;;;;2.80;1.30;;;23.20;49.70;;;;;;5059557;28;20433;-83
2021/04/13 09:18:44;;;;;;;1.70;1.47;;;23.20;49.70;;;;;;5083581;28;20458;-85
2021/04/13 09:25:20;;;;;;;2.40;1.47;;;23.20;49.60;;;;;;5052358;28;20518;-85
2021/04/13 09:46:01;;;;;;;1.43;1.20;;;23.30;49.70;;;;;;4892840;29;20444;-85
2021/04/13 09:59:17;;;;;;;1.93;1.00;;;23.30;49.80;;;;;;4873646;29;20447;-86
2021/04/13 10:02:18;;;;;;;1.43;1.10;;;23.20;49.70;;;;;;4841652;29;20493;-85
2021/04/13 10:05:25;;;;;;;1.43;1.30;;;23.30;49.80;;;;;;4845828;29;20516;-89
2021/04/13 10:08:15;;;;;;;2.60;1.40;;;23.30;49.70;;;;;;4886910;29;21132;-85
2021/04/13 10:11:48;;;;;;;2.13;1.10;;;23.30;49.70;;;;;;4871943;29;20513;-86
2021/04/13 10:18:27;;;;;;;2.50;1.20;;;23.30;49.70;;;;;;4991191;28;20413;-88
2021/04/13 10:21:25;;;;;;;1.43;1.00;;;23.30;49.70;;;;;;4979611;28;20518;-89
2021/04/13 10:24:02;;;;;;;1.27;0.93;;;23.30;49.70;;;;;;4976889;28;20428;-88
2021/04/13 10:26:50;;;;;;;1.30;1.13;;;23.20;49.70;;;;;;4996030;28;20435;-88
2021/04/13 10:29:49;;;;;;;1.80;1.07;;;23.40;49.80;;;;;;5055416;28;20425;-88
2021/04/13 10:32:35;;;;;;;2.83;1.23;;;23.20;49.60;;;;;;5062031;28;20436;-89
2021/04/13 10:36:03;;;;;;;1.83;0.93;;;23.40;49.90;;;;;;5025581;28;20404;-89
2021/04/13 10:38:51;;;;;;;1.20;1.00;;;23.30;49.60;;;;;;5020184;28;20578;-87
2021/04/13 10:41:41;;;;;;;1.47;1.20;;;23.40;49.70;;;;;;5002038;28;20510;-88
2021/04/13 10:44:47;;;;;;;1.20;0.90;;;23.40;49.70;;;;;;5019216;28;20411;-88
2021/04/13 10:47:58;;;;;;;1.40;0.90;;;23.40;49.70;;;;;;5022568;28;20483;-88
2021/04/13 10:51:10;;;;;;;1.00;0.80;;;23.40;49.70;;;;;;5017936;28;21109;-90
2021/04/13 10:53:44;;;;;;;1.10;0.80;;;23.40;49.70;;;;;;5021387;28;20435;-91
2021/04/13 10:56:59;;;;;;;1.00;0.80;;;23.40;49.70;;;;;;5023422;28;20433;-91
2021/04/13 10:59:40;;;;;;;1.50;1.17;;;23.40;49.70;;;;;;5016969;28;20439;-91
2021/04/13 11:02:11;;;;;;;2.67;1.00;;;23.40;49.90;;;;;;5026649;28;20427;-90
2021/04/13 11:04:59;;;;;;;1.60;1.00;;;23.40;49.70;;;;;;5025054;28;20427;-90
2021/04/13 11:07:33;;;;;;;1.80;1.13;;;23.40;49.60;;;;;;5023804;28;20485;-90
2021/04/13 11:10:19;;;;;;;1.20;1.00;;;23.30;49.60;;;;;;5024077;28;20416;-89
2021/04/13 11:13:23;;;;;;;1.30;1.00;;;23.40;49.60;;;;;;5024751;28;20407;-89
2021/04/13 11:16:20;;;;;;;1.47;1.10;;;23.40;49.60;;;;;;5051251;28;20467;-92
2021/04/13 11:19:36;;;;;;;1.20;1.10;;;23.40;49.60;;;;;;5049610;28;20443;-89
2021/04/13 11:22:35;;;;;;;2.00;1.27;;;23.40;49.70;;;;;;5033957;28;20449;-87
2021/04/13 11:25:26;;;;;;;1.23;0.90;;;23.40;49.70;;;;;;5066374;28;20409;-86
2021/04/13 11:28:04;;;;;;;2.30;1.00;;;23.40;49.70;;;;;;5066683;28;20457;-86
2021/04/13 11:30:57;;;;;;;1.77;1.07;;;23.40;49.60;;;;;;5048121;28;20425;-86
2021/04/13 11:34:00;;;;;;;1.90;1.40;;;23.40;49.50;;;;;;5065798;28;20393;-86
2021/04/13 11:36:42;;;;;;;1.80;1.30;;;23.40;49.40;;;;;;5047797;28;20485;-86
2021/04/13 11:39:11;;;;;;;2.03;1.30;;;23.40;49.50;;;;;;5065954;28;20413;-87
2021/04/13 11:41:52;;;;;;;1.97;0.97;;;23.40;49.80;;;;;;5048175;28;20414;-87
2021/04/13 11:44:33;;;;;;;1.33;1.03;;;23.40;49.40;;;;;;5065666;28;20497;-88
2021/04/13 11:47:22;;;;;;;1.50;1.13;;;23.40;49.40;;;;;;5065045;28;20382;-88
2021/04/13 11:50:04;;;;;;;2.13;1.10;;;23.20;49.20;;;;;;5065572;28;20720;-88
2021/04/13 11:52:43;;;;;;;1.70;1.17;;;23.40;49.50;;;;;;5065376;28;20405;-87
2021/04/13 11:55:28;;;;;;;2.00;1.40;;;23.30;49.30;;;;;;5063786;28;20413;-88
2021/04/13 11:58:21;;;;;;;1.80;1.43;;;23.30;49.50;;;;;;5065107;28;20772;-88
2021/04/13 12:01:10;;;;;;;2.93;1.33;;;23.30;49.30;;;;;;5046858;28;20425;-88
2021/04/13 12:03:37;;;;;;;1.17;1.03;;;23.30;49.30;;;;;;5061941;28;20421;-88
2021/04/13 12:06:16;;;;;;;1.70;1.10;;;23.30;49.20;;;;;;5065650;28;20444;-92
2021/04/13 12:08:45;;;;;;;1.50;1.23;;;23.30;49.20;;;;;;5047685;28;20457;-88
2021/04/13 12:11:41;;;;;;;1.60;1.30;;;23.30;49.20;;;;;;5065390;28;20491;-87
2021/04/13 12:14:37;;;;;;;2.20;1.50;;;23.40;49.30;;;;;;5066895;28;20402;-87
2021/04/13 12:17:07;;;;;;;1.83;1.30;;;23.30;49.20;;;;;;5050052;28;20766;-87
2021/04/13 12:19:38;;;;;;;1.53;1.07;;;23.30;49.40;;;;;;5047991;28;20432;-87
2021/04/13 12:22:37;;;;;;;3.00;1.73;;;23.30;49.40;;;;;;5066730;28;20413;-86
2021/04/13 12:25:47;;;;;;;2.60;1.60;;;23.30;49.20;;;;;;5041896;28;20536;-87
2021/04/13 12:28:30;;;;;;;1.80;1.30;;;23.30;49.30;;;;;;5065313;28;20465;-87
2021/04/13 12:31:34;;;;;;;1.17;1.00;;;23.20;49.40;;;;;;5049275;28;20827;-87
2021/04/13 12:34:14;;;;;;;1.40;1.27;;;23.20;49.20;;;;;;5054235;28;20409;-88
2021/04/13 12:36:49;;;;;;;1.80;1.30;;;23.30;49.40;;;;;;5065584;28;20421;-87
2021/04/13 12:40:20;;;;;;;1.40;1.17;;;23.30;49.40;;;;;;5066977;28;20863;-87
2021/04/13 12:50:13;;;;;;;1.30;1.03;;;23.10;49.30;;;;;;4985784;28;20544;-88
2021/04/13 12:52:48;;;;;;;1.50;1.20;;;23.10;49.40;;;;;;4985926;28;20453;-87
2021/04/13 13:02:48;;;;;;;1.30;1.10;;;23.10;49.50;;;;;;4966275;28;21122;-87
2021/04/13 13:05:32;;;;;;;1.53;1.20;;;23.10;49.50;;;;;;4928769;29;20875;-85
2021/04/13 13:08:06;;;;;;;1.70;1.20;;;23.00;49.50;;;;;;4930571;29;20574;-86
2021/04/13 13:10:41;;;;;;;2.87;1.43;;;23.00;49.60;;;;;;4981314;28;20517;-86
2021/04/13 13:13:27;;;;;;;2.90;1.30;;;23.00;49.60;;;;;;4981291;28;20426;-86
2021/04/13 13:15:58;;;;;;;1.30;1.07;;;23.00;49.40;;;;;;4964248;29;20918;-87
2021/04/13 13:18:30;;;;;;;1.13;0.90;;;23.00;49.60;;;;;;4948486;29;20450;-86
2021/04/13 13:21:11;;;;;;;1.37;1.00;;;23.00;49.60;;;;;;4964630;29;20595;-86
2021/04/13 13:23:44;;;;;;;2.07;1.20;;;23.00;49.50;;;;;;4981698;28;20797;-86
2021/04/13 13:26:15;;;;;;;1.20;0.93;;;23.00;49.50;;;;;;4964713;28;20976;-86
2021/04/13 13:28:42;;;;;;;1.60;1.00;;;23.00;49.50;;;;;;4980749;28;20557;-86
2021/04/13 13:31:08;;;;;;;1.37;1.00;;;23.00;49.50;;;;;;4964289;29;20410;-87
2021/04/13 13:33:48;;;;;;;2.23;1.30;;;23.00;49.50;;;;;;4964574;29;20417;-87
2021/04/13 13:36:15;;;;;;;1.60;1.03;;;23.00;49.50;;;;;;5056188;28;20417;-87
2021/04/13 13:38:44;;;;;;;1.80;1.07;;;23.00;49.50;;;;;;5064396;28;20441;-87
2021/04/13 13:41:14;;;;;;;3.63;1.00;;;23.10;49.50;;;;;;5064437;28;20795;-87
2021/04/13 13:43:40;;;;;;;1.70;1.03;;;23.00;49.40;;;;;;5064231;28;20410;-87
2021/04/13 13:46:28;;;;;;;1.40;1.13;;;23.00;49.70;;;;;;5063767;28;20449;-87
2021/04/13 13:48:56;;;;;;;2.50;1.43;;;23.00;49.40;;;;;;5046335;28;20536;-86
2021/04/13 13:51:33;;;;;;;2.07;1.00;;;22.90;49.40;;;;;;5063935;28;20405;-87
2021/04/13 13:54:21;;;;;;;1.77;1.03;;;22.90;49.40;;;;;;5047047;28;20485;-87
2021/04/13 13:56:56;;;;;;;1.37;1.10;;;22.90;49.30;;;;;;5046223;28;20417;-86
2021/04/13 13:59:39;;;;;;;1.30;1.03;;;22.90;49.50;;;;;;5045814;28;20433;-87
2021/04/13 14:02:31;;;;;;;1.33;1.07;;;22.90;49.40;;;;;;5064093;28;20424;-86
2021/04/13 14:05:23;;;;;;;1.93;1.20;;;22.90;49.40;;;;;;5063772;28;20393;-86
2021/04/13 14:07:49;;;;;;;1.30;1.00;;;22.90;49.50;;;;;;5064096;28;20531;-86
2021/04/13 14:10:30;;;;;;;1.00;0.80;;;22.80;49.50;;;;;;5046149;28;20428;-86
2021/04/13 14:13:18;;;;;;;2.83;1.03;;;22.80;49.50;;;;;;5062918;28;20413;-86
2021/04/13 14:15:46;;;;;;;1.40;1.00;;;22.80;49.40;;;;;;5045822;28;20497;-86
2021/04/13 14:18:33;;;;;;;1.20;0.90;;;22.80;49.70;;;;;;5046302;28;20417;-87
2021/04/13 14:21:38;;;;;;;1.67;1.00;;;22.80;49.70;;;;;;5064417;28;20393;-87
2021/04/13 14:24:16;;;;;;;1.60;1.30;;;22.80;49.50;;;;;;4952337;28;20406;-87
2021/04/13 14:26:46;;;;;;;1.57;1.47;;;22.80;49.50;;;;;;5051415;28;20436;-85
2021/04/13 14:29:20;;;;;;;1.17;0.93;;;22.80;49.70;;;;;;5066856;28;20546;-85
2021/04/13 14:31:50;;;;;;;1.10;0.87;;;22.80;49.60;;;;;;5050308;28;20410;-85
2021/04/13 14:34:17;;;;;;;1.30;1.00;;;22.90;49.60;;;;;;5066333;28;20516;-85
2021/04/13 14:36:43;;;;;;;1.70;1.43;;;22.80;49.60;;;;;;5049870;28;20421;-85
2021/04/13 14:39:13;;;;;;;1.30;1.10;;;22.80;49.60;;;;;;5065833;28;20413;-85
2021/04/13 14:41:38;;;;;;;1.00;0.80;;;22.80;49.60;;;;;;5066694;28;20417;-86
2021/04/13 14:44:06;;;;;;;1.73;1.03;;;22.80;49.80;;;;;;5068019;28;20416;-86
2021/04/13 14:46:35;;;;;;;1.20;1.00;;;22.80;49.50;;;;;;5066629;28;20614;-86
2021/04/13 14:49:03;;;;;;;1.10;0.90;;;22.80;49.50;;;;;;5066076;28;20453;-86
2021/04/13 14:51:39;;;;;;;1.80;1.10;;;22.80;49.70;;;;;;5067061;28;20420;-89
2021/04/13 14:54:06;;;;;;;2.03;1.20;;;22.80;49.60;;;;;;5068535;28;20468;-85
2021/04/13 14:56:32;;;;;;;3.00;1.30;;;22.80;50.10;;;;;;5068022;28;20408;-85
2021/04/13 14:59:04;;;;;;;2.13;1.37;;;22.80;49.80;;;;;;5065204;28;20413;-85
2021/04/13 15:01:31;;;;;;;2.93;1.13;;;22.80;49.80;;;;;;5052656;28;20764;-84
2021/04/13 15:03:59;;;;;;;1.77;1.17;;;22.80;49.80;;;;;;5068218;28;20426;-84
2021/04/13 15:06:27;;;;;;;1.60;1.20;;;22.80;49.80;;;;;;5067210;28;20422;-84
2021/04/13 15:08:57;;;;;;;1.93;1.00;;;22.80;49.40;;;;;;5068533;28;20463;-84
2021/04/13 15:11:26;;;;;;;4.17;1.20;;;22.90;49.30;;;;;;5070203;28;20405;-84
2021/04/13 15:13:53;;;;;;;2.30;1.30;;;22.80;49.10;;;;;;5068967;28;20413;-83
2021/04/13 15:16:21;;;;;;;1.20;1.00;;;22.80;49.20;;;;;;5068148;28;20417;-83
2021/04/13 15:18:47;;;;;;;2.00;1.07;;;22.70;49.30;;;;;;5070577;28;20406;-84
2021/04/13 15:21:14;;;;;;;1.83;0.90;;;22.70;49.30;;;;;;5069746;28;20405;-84
2021/04/13 15:23:41;;;;;;;3.07;1.20;;;22.70;49.50;;;;;;5068412;28;20428;-84
2021/04/13 15:26:10;;;;;;;2.03;1.20;;;22.70;49.50;;;;;;5069028;28;20421;-84
2021/04/13 15:28:36;;;;;;;3.00;1.30;;;22.70;49.20;;;;;;5052340;28;20457;-83
2021/04/13 15:31:02;;;;;;;2.40;1.10;;;22.70;49.30;;;;;;5070055;28;20448;-83
2021/04/13 15:33:35;;;;;;;2.50;1.10;;;22.70;49.40;;;;;;5070154;28;20186;-84
2021/04/13 15:36:05;;;;;;;2.17;1.10;;;22.70;49.40;;;;;;5068377;28;20420;-84
2021/04/13 15:38:31;;;;;;;3.13;1.17;;;22.70;49.40;;;;;;5071170;28;20409;-85
2021/04/13 15:41:37;;;;;;;2.60;1.50;;;22.70;49.50;;;;;;5069675;28;20496;-85
2021/04/13 15:44:16;;;;;;;2.17;1.33;;;22.70;49.40;;;;;;5041153;28;20441;-85
2021/04/13 15:46:42;;;;;;;1.23;0.90;;;22.60;49.60;;;;;;5036824;28;20420;-83
2021/04/13 15:49:17;;;;;;;1.70;1.30;;;22.60;49.60;;;;;;5069197;28;20535;-85
2021/04/13 15:51:46;;;;;;;1.30;0.97;;;22.60;49.60;;;;;;5070840;28;20446;-84